Time;durP1;ratioP1;P1;durP2;ratioP2;P2;SDS_P1;SDS_P2;PMS_P1;PMS_P2;Temp;Humidity;BMP_temperature;BMP_pressure;BME280_temperature;BME280_humidity;BME280_pressure;Samples;Min_cycle;Max_cycle;Signal;HPM_P1;HPM_P2
2023/09/21 00:00:21;;;;;;;2.70;2.50;;;;;;;;;;5008391;28;20220;-53
2023/09/21 00:02:49;;;;;;;3.53;2.70;;;;;;;;;;5006351;28;20193;-53
2023/09/21 00:05:23;;;;;;;2.45;2.25;;;;;;;;;;5006781;28;20192;-54
2023/09/21 00:07:50;;;;;;;3.00;2.50;;;;;;;;;;5007605;28;20194;-53
2023/09/21 00:10:16;;;;;;;;;;;;;;;;;;5006715;28;20198;-54
2023/09/21 00:12:43;;;;;;;2.40;2.20;;;;;;;;;;5009458;28;20217;-53
2023/09/21 00:15:21;;;;;;;3.80;2.60;;;;;;;;;;5007470;28;20563;-53
2023/09/21 00:17:51;;;;;;;2.90;2.30;;;;;;;;;;5008234;28;20715;-53
2023/09/21 00:21:06;;;;;;;6.40;2.70;;;;;;;;;;5006565;28;20207;-53
2023/09/21 00:23:06;;;;;;;3.93;2.33;;;;;;;;;;4998661;28;20548;-53
2023/09/21 00:25:33;;;;;;;4.27;2.70;;;;;;;;;;5007363;28;20631;-54
2023/09/21 00:27:59;;;;;;;2.47;2.27;;;;;;;;;;5006972;28;20272;-53
2023/09/21 00:30:25;;;;;;;4.47;2.30;;;;;;;;;;5004092;28;20243;-53
2023/09/21 00:32:52;;;;;;;2.60;2.40;;;;;;;;;;5006992;28;20570;-53
2023/09/21 00:35:18;;;;;;;3.47;3.17;;;;;;;;;;5003220;28;20188;-53
2023/09/21 00:37:46;;;;;;;2.50;2.30;;;;;;;;;;5005703;28;20198;-53
2023/09/21 00:40:31;;;;;;;3.03;2.50;;;;;;;;;;4987045;28;20217;-53
2023/09/21 00:42:57;;;;;;;3.67;2.47;;;;;;;;;;5007406;28;20176;-53
2023/09/21 00:45:24;;;;;;;3.53;3.27;;;;;;;;;;4998447;28;20524;-54
2023/09/21 00:47:54;;;;;;;2.60;2.40;;;;;;;;;;4990742;28;20203;-54
2023/09/21 00:50:22;;;;;;;3.10;2.40;;;;;;;;;;5007374;28;21492;-54
2023/09/21 00:52:51;;;;;;;2.40;2.20;;;;;;;;;;5008455;28;20619;-53
2023/09/21 00:55:29;;;;;;;3.83;2.43;;;;;;;;;;5001175;28;20224;-54
2023/09/21 00:57:59;;;;;;;4.03;2.50;;;;;;;;;;4999208;28;20465;-53
2023/09/21 01:00:26;;;;;;;2.37;2.17;;;;;;;;;;5006988;28;20202;-53
2023/09/21 01:02:54;;;;;;;3.10;2.80;;;;;;;;;;5008649;28;20175;-53
2023/09/21 01:05:22;;;;;;;2.30;2.20;;;;;;;;;;5009206;28;20217;-53
2023/09/21 01:07:50;;;;;;;3.03;2.73;;;;;;;;;;5005619;28;20183;-53
2023/09/21 01:10:19;;;;;;;3.10;2.80;;;;;;;;;;5005225;28;20196;-53
2023/09/21 01:12:51;;;;;;;2.40;2.20;;;;;;;;;;5004930;28;20246;-53
2023/09/21 01:15:17;;;;;;;4.60;2.70;;;;;;;;;;5003032;28;20178;-54
2023/09/21 01:17:47;;;;;;;3.10;2.60;;;;;;;;;;5002404;28;20179;-53
2023/09/21 01:20:22;;;;;;;;;;;;;;;;;;4996609;28;20547;-52
2023/09/21 01:23:18;;;;;;;3.33;2.50;;;;;;;;;;5007707;28;20205;-53
2023/09/21 01:25:52;;;;;;;8.80;2.53;;;;;;;;;;4994889;28;20197;-52
2023/09/21 01:28:23;;;;;;;3.30;2.43;;;;;;;;;;5004774;28;20178;-52
2023/09/21 01:30:56;;;;;;;2.87;2.50;;;;;;;;;;5004185;28;20236;-53
2023/09/21 01:33:23;;;;;;;11.50;3.27;;;;;;;;;;5006912;28;20343;-52
2023/09/21 01:35:49;;;;;;;4.07;2.60;;;;;;;;;;5006808;28;20631;-52
2023/09/21 01:38:17;;;;;;;2.47;2.30;;;;;;;;;;5005656;28;20205;-52
2023/09/21 01:40:44;;;;;;;2.97;2.40;;;;;;;;;;4987734;28;20225;-52
2023/09/21 01:43:14;;;;;;;4.60;2.33;;;;;;;;;;5005238;28;20607;-52
2023/09/21 01:45:42;;;;;;;4.03;2.40;;;;;;;;;;5006603;28;20595;-52
2023/09/21 01:48:09;;;;;;;3.13;2.53;;;;;;;;;;5006483;28;20359;-52
2023/09/21 01:50:52;;;;;;;2.40;2.20;;;;;;;;;;5006887;28;20192;-52
2023/09/21 01:53:19;;;;;;;2.50;2.23;;;;;;;;;;5005844;28;20781;-52
2023/09/21 01:55:47;;;;;;;3.87;2.20;;;;;;;;;;5005896;28;20232;-52
2023/09/21 01:58:14;;;;;;;2.67;2.40;;;;;;;;;;4988113;28;20180;-52
2023/09/21 02:00:41;;;;;;;3.10;2.80;;;;;;;;;;5006360;28;20248;-52
2023/09/21 02:03:12;;;;;;;2.60;2.40;;;;;;;;;;5003435;28;20174;-52
2023/09/21 02:05:40;;;;;;;5.00;2.27;;;;;;;;;;5005274;28;20185;-53
2023/09/21 02:08:07;;;;;;;2.67;2.10;;;;;;;;;;5007368;28;20180;-52
2023/09/21 02:10:38;;;;;;;2.37;2.17;;;;;;;;;;5004451;28;20549;-52
2023/09/21 02:13:08;;;;;;;2.50;2.30;;;;;;;;;;5007285;28;20270;-52
2023/09/21 02:15:38;;;;;;;2.53;2.33;;;;;;;;;;5005112;28;20575;-52
2023/09/21 02:18:05;;;;;;;3.43;2.20;;;;;;;;;;5004488;28;20586;-52
2023/09/21 02:20:31;;;;;;;6.33;2.30;;;;;;;;;;5005002;28;20671;-51
2023/09/21 02:23:00;;;;;;;2.40;2.20;;;;;;;;;;5007077;28;20179;-51
2023/09/21 02:25:26;;;;;;;2.80;2.60;;;;;;;;;;5004417;28;20637;-51
2023/09/21 02:27:53;;;;;;;2.73;2.53;;;;;;;;;;5005189;28;20182;-52
2023/09/21 02:30:23;;;;;;;2.70;2.50;;;;;;;;;;5006264;28;20226;-52
2023/09/21 02:32:51;;;;;;;3.07;2.30;;;;;;;;;;5006283;28;20170;-52
2023/09/21 02:35:26;;;;;;;3.27;2.40;;;;;;;;;;5004281;28;20175;-52
2023/09/21 02:37:53;;;;;;;2.60;2.40;;;;;;;;;;4997248;28;20170;-52
2023/09/21 02:40:20;;;;;;;3.97;2.97;;;;;;;;;;4998178;28;20195;-52
2023/09/21 02:42:48;;;;;;;2.73;2.43;;;;;;;;;;4989200;28;20167;-52
2023/09/21 02:45:15;;;;;;;2.40;2.20;;;;;;;;;;5000836;28;20257;-51
2023/09/21 02:47:41;;;;;;;2.37;2.17;;;;;;;;;;4989352;28;20270;-51
2023/09/21 02:50:14;;;;;;;2.60;2.37;;;;;;;;;;4998716;28;20673;-52
2023/09/21 02:52:46;;;;;;;2.70;2.30;;;;;;;;;;4996598;28;20182;-52
2023/09/21 02:55:15;;;;;;;3.13;2.50;;;;;;;;;;5001467;28;20189;-51
2023/09/21 02:57:41;;;;;;;2.83;2.60;;;;;;;;;;5001584;28;20606;-51
2023/09/21 03:00:21;;;;;;;2.90;2.47;;;;;;;;;;4984767;28;20205;-52
2023/09/21 03:02:47;;;;;;;2.83;2.10;;;;;;;;;;5004590;28;20186;-52
2023/09/21 03:05:13;;;;;;;4.03;2.63;;;;;;;;;;4995393;28;20181;-51
2023/09/21 03:07:43;;;;;;;2.40;2.20;;;;;;;;;;5002820;28;20188;-51
2023/09/21 03:10:10;;;;;;;3.13;2.33;;;;;;;;;;5008154;28;20213;-52
2023/09/21 03:12:37;;;;;;;2.83;2.40;;;;;;;;;;5005306;28;20516;-51
2023/09/21 03:15:15;;;;;;;2.37;2.17;;;;;;;;;;5000524;28;20183;-51
2023/09/21 03:17:42;;;;;;;2.92;2.58;;;;;;;;;;5007384;28;20437;-51
2023/09/21 03:20:12;;;;;;;3.00;2.70;;;;;;;;;;5006088;28;20552;-51
2023/09/21 03:22:38;;;;;;;3.50;2.23;;;;;;;;;;5007251;28;20178;-52
2023/09/21 03:25:11;;;;;;;4.93;2.37;;;;;;;;;;5005256;28;20194;-51
2023/09/21 03:27:37;;;;;;;2.83;2.47;;;;;;;;;;5011282;28;20463;-51
2023/09/21 03:30:05;;;;;;;2.60;2.37;;;;;;;;;;4985974;28;20310;-52
2023/09/21 03:32:31;;;;;;;2.63;2.03;;;;;;;;;;5009491;28;20602;-51
2023/09/21 03:34:58;;;;;;;2.33;2.13;;;;;;;;;;5007582;28;20229;-52
2023/09/21 03:37:26;;;;;;;2.93;2.37;;;;;;;;;;5007211;28;20266;-51
2023/09/21 03:39:52;;;;;;;2.50;2.30;;;;;;;;;;5009137;28;20209;-51
2023/09/21 03:42:22;;;;;;;4.80;2.40;;;;;;;;;;5008863;28;20185;-51
2023/09/21 03:44:49;;;;;;;2.43;2.13;;;;;;;;;;5009701;28;20197;-52
2023/09/21 03:47:17;;;;;;;3.13;2.77;;;;;;;;;;5009551;28;20590;-51
2023/09/21 03:49:47;;;;;;;2.57;2.37;;;;;;;;;;5006189;28;20198;-51
2023/09/21 03:52:16;;;;;;;3.50;2.60;;;;;;;;;;5009395;28;20638;-52
2023/09/21 03:54:47;;;;;;;3.90;2.80;;;;;;;;;;5009741;28;20192;-52
2023/09/21 03:57:16;;;;;;;2.83;2.47;;;;;;;;;;5009540;28;20188;-52
2023/09/21 03:59:43;;;;;;;2.40;2.20;;;;;;;;;;4990383;28;20701;-52
2023/09/21 04:02:09;;;;;;;3.47;3.17;;;;;;;;;;5009517;28;20680;-52
2023/09/21 04:04:38;;;;;;;2.80;2.40;;;;;;;;;;5008014;28;20184;-53
2023/09/21 04:07:07;;;;;;;2.87;2.67;;;;;;;;;;5008910;28;20191;-53
2023/09/21 04:09:33;;;;;;;2.60;2.40;;;;;;;;;;5007415;28;20643;-53
2023/09/21 04:12:00;;;;;;;2.33;2.13;;;;;;;;;;5007019;28;20791;-52
2023/09/21 04:14:27;;;;;;;2.73;2.53;;;;;;;;;;5007309;28;20193;-52
2023/09/21 04:16:56;;;;;;;3.70;2.47;;;;;;;;;;5007625;28;20653;-52
2023/09/21 04:19:26;;;;;;;2.97;2.30;;;;;;;;;;5007118;28;20650;-52
2023/09/21 04:21:52;;;;;;;4.83;2.50;;;;;;;;;;5009956;28;20237;-53
2023/09/21 04:24:18;;;;;;;3.13;2.63;;;;;;;;;;5008803;28;20172;-53
2023/09/21 04:26:44;;;;;;;2.63;2.43;;;;;;;;;;5008177;28;20205;-52
2023/09/21 04:29:15;;;;;;;3.70;3.17;;;;;;;;;;5005597;28;20363;-53
2023/09/21 04:31:42;;;;;;;2.80;2.50;;;;;;;;;;5004694;28;20218;-53
2023/09/21 04:34:08;;;;;;;2.40;2.20;;;;;;;;;;5008481;28;20193;-53
2023/09/21 04:36:34;;;;;;;3.70;2.70;;;;;;;;;;5001738;28;20185;-53
2023/09/21 04:39:00;;;;;;;2.73;2.53;;;;;;;;;;5000072;28;20191;-53
2023/09/21 04:41:30;;;;;;;2.40;2.20;;;;;;;;;;5006877;28;20240;-53
2023/09/21 04:43:56;;;;;;;3.07;2.17;;;;;;;;;;5006666;28;20658;-53
2023/09/21 04:46:23;;;;;;;5.07;2.80;;;;;;;;;;5002239;28;20183;-53
2023/09/21 04:48:49;;;;;;;2.63;2.40;;;;;;;;;;5005861;28;20274;-52
2023/09/21 04:51:17;;;;;;;3.63;2.60;;;;;;;;;;4992167;28;20513;-53
2023/09/21 04:53:43;;;;;;;2.87;2.60;;;;;;;;;;5007103;28;20176;-53
2023/09/21 04:56:10;;;;;;;2.60;2.40;;;;;;;;;;5005800;28;20177;-53
2023/09/21 04:58:37;;;;;;;2.73;2.50;;;;;;;;;;5007671;28;20219;-53
2023/09/21 05:01:09;;;;;;;2.90;2.20;;;;;;;;;;5005881;28;20221;-53
2023/09/21 05:03:36;;;;;;;2.50;2.30;;;;;;;;;;5008192;28;20200;-53
2023/09/21 05:06:02;;;;;;;2.60;2.40;;;;;;;;;;5007972;28;20202;-53
2023/09/21 05:08:29;;;;;;;3.03;2.20;;;;;;;;;;5006038;28;20178;-53
2023/09/21 05:10:55;;;;;;;2.90;2.57;;;;;;;;;;5007251;28;20286;-53
2023/09/21 05:13:22;;;;;;;2.93;2.73;;;;;;;;;;5006845;28;20198;-53
2023/09/21 05:15:48;;;;;;;3.13;2.50;;;;;;;;;;4988081;28;20180;-54
2023/09/21 05:18:16;;;;;;;2.70;2.50;;;;;;;;;;5006791;28;20288;-54
2023/09/21 05:20:45;;;;;;;2.40;2.20;;;;;;;;;;5007296;28;20285;-54
2023/09/21 05:23:11;;;;;;;5.07;2.73;;;;;;;;;;5007526;28;20543;-54
2023/09/21 05:25:37;;;;;;;2.57;2.37;;;;;;;;;;5007001;28;20498;-54
2023/09/21 05:28:03;;;;;;;2.80;2.60;;;;;;;;;;5009198;28;20631;-53
2023/09/21 05:30:30;;;;;;;3.80;2.57;;;;;;;;;;5006752;28;20245;-53
2023/09/21 05:32:57;;;;;;;4.60;2.83;;;;;;;;;;5004439;28;20199;-54
2023/09/21 05:35:23;;;;;;;3.40;2.30;;;;;;;;;;5007551;28;20233;-52
2023/09/21 05:37:52;;;;;;;3.57;3.23;;;;;;;;;;5007206;28;20245;-51
2023/09/21 05:40:18;;;;;;;5.33;2.97;;;;;;;;;;5002547;28;20781;-51
2023/09/21 05:42:45;;;;;;;3.93;2.77;;;;;;;;;;5002441;28;20593;-51
2023/09/21 05:45:11;;;;;;;3.93;2.50;;;;;;;;;;5000054;28;20192;-52
2023/09/21 05:47:37;;;;;;;4.07;2.77;;;;;;;;;;5007727;28;20183;-52
2023/09/21 05:50:05;;;;;;;3.63;2.50;;;;;;;;;;5006779;28;20183;-53
2023/09/21 05:52:33;;;;;;;7.90;4.57;;;;;;;;;;5007874;28;20196;-55
2023/09/21 05:55:00;;;;;;;4.33;2.50;;;;;;;;;;5003486;28;20191;-52
2023/09/21 05:57:27;;;;;;;3.17;2.87;;;;;;;;;;5009954;28;20599;-53
2023/09/21 05:59:54;;;;;;;5.00;2.60;;;;;;;;;;5002595;28;20257;-53
2023/09/21 06:02:20;;;;;;;2.50;2.30;;;;;;;;;;5003023;28;20193;-52
2023/09/21 06:04:47;;;;;;;2.67;2.47;;;;;;;;;;5008909;28;20191;-53
2023/09/21 06:07:14;;;;;;;3.13;2.70;;;;;;;;;;5002665;28;20190;-53
2023/09/21 06:09:43;;;;;;;2.60;2.40;;;;;;;;;;5001512;28;20178;-53
2023/09/21 06:12:12;;;;;;;4.00;2.90;;;;;;;;;;5002305;28;20608;-53
2023/09/21 06:14:39;;;;;;;3.10;2.77;;;;;;;;;;5006054;28;20194;-53
2023/09/21 06:17:06;;;;;;;2.63;2.43;;;;;;;;;;5024896;28;20271;-53
2023/09/21 06:19:32;;;;;;;3.27;2.50;;;;;;;;;;5015558;28;20200;-53
2023/09/21 06:21:59;;;;;;;2.50;2.30;;;;;;;;;;5010792;28;20254;-53
2023/09/21 06:24:25;;;;;;;3.53;2.87;;;;;;;;;;5008159;28;20587;-53
2023/09/21 06:26:54;;;;;;;4.97;2.67;;;;;;;;;;5008237;28;20175;-53
2023/09/21 06:29:22;;;;;;;3.17;2.47;;;;;;;;;;5021752;28;20615;-53
2023/09/21 06:31:49;;;;;;;4.70;2.57;;;;;;;;;;5014901;28;20201;-53
2023/09/21 06:34:21;;;;;;;4.10;2.67;;;;;;;;;;5016762;28;20608;-53
2023/09/21 06:36:52;;;;;;;3.67;2.37;;;;;;;;;;5014235;28;20199;-53
2023/09/21 06:39:20;;;;;;;2.80;2.60;;;;;;;;;;4989652;28;20409;-52
2023/09/21 06:41:47;;;;;;;2.97;2.73;;;;;;;;;;5028952;28;20255;-52
2023/09/21 06:44:15;;;;;;;5.23;2.93;;;;;;;;;;5023197;28;20512;-52
2023/09/21 06:46:41;;;;;;;2.83;2.50;;;;;;;;;;5012996;28;20185;-52
2023/09/21 06:49:07;;;;;;;4.77;3.00;;;;;;;;;;4992183;28;20185;-52
2023/09/21 06:51:34;;;;;;;2.73;2.53;;;;;;;;;;5023447;28;20163;-52
2023/09/21 06:54:00;;;;;;;2.60;2.40;;;;;;;;;;5024809;28;20196;-52
2023/09/21 06:56:31;;;;;;;3.30;3.00;;;;;;;;;;5017560;28;20645;-52
2023/09/21 06:58:57;;;;;;;4.33;2.90;;;;;;;;;;5013377;28;20257;-52
2023/09/21 07:01:26;;;;;;;3.33;2.50;;;;;;;;;;5017545;28;20183;-52
2023/09/21 07:03:52;;;;;;;3.87;2.90;;;;;;;;;;4991257;28;20219;-53
2023/09/21 07:06:19;;;;;;;3.47;2.50;;;;;;;;;;4998911;28;20283;-51
2023/09/21 07:08:46;;;;;;;4.18;2.97;;;;;;;;;;5006686;28;20438;-51
2023/09/21 07:11:13;;;;;;;3.17;2.47;;;;;;;;;;5011668;28;20177;-51
2023/09/21 07:13:39;;;;;;;3.43;2.67;;;;;;;;;;5004006;28;20193;-51
2023/09/21 07:16:05;;;;;;;4.77;2.43;;;;;;;;;;5011457;28;20214;-52
2023/09/21 07:18:32;;;;;;;2.83;2.57;;;;;;;;;;5009584;28;20179;-52
2023/09/21 07:20:58;;;;;;;2.77;2.50;;;;;;;;;;5009398;28;20214;-52
2023/09/21 07:23:24;;;;;;;2.70;2.47;;;;;;;;;;5009263;28;20186;-53
2023/09/21 07:25:53;;;;;;;2.57;2.37;;;;;;;;;;5010532;28;20236;-53
2023/09/21 07:28:21;;;;;;;4.23;2.40;;;;;;;;;;5007876;28;20186;-54
2023/09/21 07:30:51;;;;;;;4.47;2.80;;;;;;;;;;5012530;28;20612;-54
2023/09/21 07:33:17;;;;;;;3.20;2.60;;;;;;;;;;5010896;28;20191;-53
2023/09/21 07:35:43;;;;;;;3.10;2.80;;;;;;;;;;5004808;28;20189;-52
2023/09/21 07:38:09;;;;;;;2.40;2.17;;;;;;;;;;5010016;28;20682;-53
2023/09/21 07:40:35;;;;;;;2.80;2.60;;;;;;;;;;5010358;28;20281;-53
2023/09/21 07:43:06;;;;;;;2.60;2.40;;;;;;;;;;4992552;28;20182;-52
2023/09/21 07:45:32;;;;;;;4.03;3.23;;;;;;;;;;5013135;28;20178;-53
2023/09/21 07:47:59;;;;;;;3.70;2.30;;;;;;;;;;5010150;28;20187;-53
2023/09/21 07:50:26;;;;;;;7.63;2.87;;;;;;;;;;5009091;28;20273;-54
2023/09/21 07:52:56;;;;;;;4.67;3.27;;;;;;;;;;5010648;28;20665;-53
2023/09/21 07:55:22;;;;;;;2.83;2.53;;;;;;;;;;5009904;28;20256;-53
2023/09/21 07:57:48;;;;;;;3.07;2.63;;;;;;;;;;5014117;28;20184;-53
2023/09/21 08:00:15;;;;;;;2.67;2.30;;;;;;;;;;5010429;28;20209;-55
2023/09/21 08:02:41;;;;;;;3.13;2.70;;;;;;;;;;5011447;28;20177;-53
2023/09/21 08:05:09;;;;;;;4.53;2.87;;;;;;;;;;5007372;28;20278;-52
2023/09/21 08:07:36;;;;;;;4.17;2.83;;;;;;;;;;5002542;28;20612;-52
2023/09/21 08:10:03;;;;;;;3.00;2.67;;;;;;;;;;5009402;28;20265;-53
2023/09/21 08:12:30;;;;;;;4.47;2.53;;;;;;;;;;5022257;28;20507;-53
2023/09/21 08:14:57;;;;;;;3.40;2.53;;;;;;;;;;5011208;28;20197;-53
2023/09/21 08:17:23;;;;;;;5.53;2.77;;;;;;;;;;5008081;28;20639;-53
2023/09/21 08:19:50;;;;;;;3.60;2.40;;;;;;;;;;5008945;28;20771;-52
2023/09/21 08:22:16;;;;;;;4.00;2.57;;;;;;;;;;5008212;28;20247;-54
2023/09/21 08:24:42;;;;;;;3.87;2.83;;;;;;;;;;5009341;28;20177;-53
2023/09/21 08:27:09;;;;;;;3.67;2.70;;;;;;;;;;5008417;28;20193;-53
2023/09/21 08:29:35;;;;;;;3.10;2.63;;;;;;;;;;5015770;28;20229;-49
2023/09/21 08:32:03;;;;;;;3.83;2.90;;;;;;;;;;5008067;28;20186;-50
2023/09/21 08:34:30;;;;;;;4.97;2.70;;;;;;;;;;5005603;28;20281;-50
2023/09/21 08:36:56;;;;;;;4.53;2.80;;;;;;;;;;5008741;28;20191;-49
2023/09/21 08:39:22;;;;;;;4.63;2.70;;;;;;;;;;5010252;28;20223;-50
2023/09/21 08:41:50;;;;;;;3.57;2.90;;;;;;;;;;5011431;28;20551;-50
2023/09/21 08:44:17;;;;;;;2.93;2.73;;;;;;;;;;5009596;28;20184;-49
2023/09/21 08:46:51;;;;;;;3.37;2.80;;;;;;;;;;5007651;28;20200;-51
2023/09/21 08:49:21;;;;;;;5.03;3.00;;;;;;;;;;5008422;28;20254;-50
2023/09/21 08:51:48;;;;;;;3.80;2.60;;;;;;;;;;5014834;28;20214;-52
2023/09/21 08:54:15;;;;;;;6.03;2.70;;;;;;;;;;5003803;28;20256;-50
2023/09/21 08:56:46;;;;;;;4.50;3.13;;;;;;;;;;5013700;28;20197;-51
2023/09/21 08:59:14;;;;;;;4.07;2.70;;;;;;;;;;5008822;28;20228;-52
2023/09/21 09:01:40;;;;;;;3.63;2.83;;;;;;;;;;5006724;28;20262;-50
2023/09/21 09:04:06;;;;;;;5.27;2.70;;;;;;;;;;5009589;28;20718;-48
2023/09/21 09:06:33;;;;;;;4.33;2.70;;;;;;;;;;5008223;28;20604;-51
2023/09/21 09:08:59;;;;;;;3.90;2.80;;;;;;;;;;5006695;28;20186;-56
2023/09/21 09:11:45;;;;;;;3.33;2.70;;;;;;;;;;5007309;28;20615;-51
2023/09/21 09:14:16;;;;;;;6.60;2.50;;;;;;;;;;5014629;28;20188;-51
2023/09/21 09:16:46;;;;;;;2.40;2.20;;;;;;;;;;5010818;28;20191;-51
2023/09/21 09:19:12;;;;;;;6.80;2.93;;;;;;;;;;5006411;28;20182;-49
2023/09/21 09:21:40;;;;;;;3.10;2.50;;;;;;;;;;5011058;28;20283;-50
2023/09/21 09:24:08;;;;;;;3.20;2.53;;;;;;;;;;5001542;28;20298;-50
2023/09/21 09:26:35;;;;;;;3.23;3.03;;;;;;;;;;5009396;28;20200;-49
2023/09/21 09:29:12;;;;;;;4.03;2.70;;;;;;;;;;5006334;28;20183;-50
2023/09/21 09:31:41;;;;;;;2.80;2.60;;;;;;;;;;5008106;28;20211;-50
2023/09/21 09:34:09;;;;;;;3.57;2.77;;;;;;;;;;5003950;28;20178;-49
2023/09/21 09:36:37;;;;;;;9.07;2.27;;;;;;;;;;5007614;28;20663;-49
2023/09/21 09:39:08;;;;;;;2.97;2.37;;;;;;;;;;5005833;28;20189;-50
2023/09/21 09:41:35;;;;;;;2.60;2.40;;;;;;;;;;5008489;28;20178;-51
2023/09/21 09:44:05;;;;;;;3.40;2.73;;;;;;;;;;5010118;28;20237;-51
2023/09/21 09:46:35;;;;;;;4.73;2.77;;;;;;;;;;5008245;28;20185;-51
2023/09/21 09:49:02;;;;;;;5.30;3.10;;;;;;;;;;5007763;28;20624;-50
2023/09/21 09:51:37;;;;;;;3.10;2.80;;;;;;;;;;5006717;28;20182;-52
2023/09/21 09:54:03;;;;;;;2.83;2.53;;;;;;;;;;5010704;28;20178;-51
2023/09/21 09:56:30;;;;;;;3.30;2.53;;;;;;;;;;5008641;28;20598;-52
2023/09/21 09:59:02;;;;;;;4.43;2.73;;;;;;;;;;5004646;28;20206;-51
2023/09/21 10:01:29;;;;;;;3.57;2.57;;;;;;;;;;5009376;28;20375;-51
2023/09/21 10:03:55;;;;;;;5.13;3.10;;;;;;;;;;5005333;28;20503;-51
2023/09/21 10:06:21;;;;;;;3.87;2.90;;;;;;;;;;5008185;28;20231;-51
2023/09/21 10:08:47;;;;;;;6.00;3.47;;;;;;;;;;5006604;28;20652;-50
2023/09/21 10:11:15;;;;;;;3.67;2.90;;;;;;;;;;5007336;28;20697;-50
2023/09/21 10:13:56;;;;;;;3.43;2.60;;;;;;;;;;5005243;28;20202;-51
2023/09/21 10:16:26;;;;;;;4.33;2.60;;;;;;;;;;5008843;28;20582;-51
2023/09/21 10:18:57;;;;;;;3.53;2.90;;;;;;;;;;5005940;28;20532;-52
2023/09/21 10:21:24;;;;;;;2.80;2.50;;;;;;;;;;5005320;28;20229;-50
2023/09/21 10:24:03;;;;;;;3.00;2.67;;;;;;;;;;5008527;28;20701;-51
2023/09/21 10:26:33;;;;;;;3.80;2.93;;;;;;;;;;4997983;28;20189;-50
2023/09/21 10:29:03;;;;;;;2.93;2.60;;;;;;;;;;5007986;28;20321;-51
2023/09/21 10:31:30;;;;;;;3.30;2.83;;;;;;;;;;5006809;28;20674;-51
2023/09/21 10:34:00;;;;;;;4.20;2.97;;;;;;;;;;5005860;28;20227;-51
2023/09/21 10:36:30;;;;;;;4.80;2.57;;;;;;;;;;5011314;28;20193;-50
2023/09/21 10:39:12;;;;;;;3.20;2.27;;;;;;;;;;5010267;28;20551;-50
2023/09/21 10:41:41;;;;;;;2.70;2.50;;;;;;;;;;5013979;28;20281;-51
2023/09/21 10:44:07;;;;;;;2.30;2.03;;;;;;;;;;5010545;28;20178;-51
2023/09/21 10:46:34;;;;;;;2.77;2.27;;;;;;;;;;5010085;28;20214;-50
2023/09/21 10:49:03;;;;;;;2.70;2.50;;;;;;;;;;5007505;28;20641;-49
2023/09/21 10:51:34;;;;;;;3.77;2.83;;;;;;;;;;5011056;28;20560;-49
2023/09/21 10:54:03;;;;;;;2.70;2.50;;;;;;;;;;5009186;28;20195;-48
2023/09/21 10:56:31;;;;;;;2.70;2.50;;;;;;;;;;5011272;28;20175;-48
2023/09/21 10:58:57;;;;;;;3.00;2.50;;;;;;;;;;5006027;28;20625;-51
2023/09/21 11:01:24;;;;;;;2.87;2.60;;;;;;;;;;4991967;28;20241;-48
2023/09/21 11:03:50;;;;;;;3.50;2.33;;;;;;;;;;5010701;28;20189;-50
2023/09/21 11:06:19;;;;;;;2.97;2.50;;;;;;;;;;4995535;28;20174;-50
2023/09/21 11:08:49;;;;;;;2.70;2.50;;;;;;;;;;5008590;28;20183;-52
2023/09/21 11:11:16;;;;;;;3.33;2.80;;;;;;;;;;5010112;28;20186;-50
2023/09/21 11:13:42;;;;;;;2.87;2.27;;;;;;;;;;5010870;28;20184;-51
2023/09/21 11:16:13;;;;;;;3.07;2.40;;;;;;;;;;4999651;28;20178;-51
2023/09/21 11:18:40;;;;;;;3.30;3.00;;;;;;;;;;5012851;28;20187;-51
2023/09/21 11:21:11;;;;;;;2.77;2.40;;;;;;;;;;5010319;28;20198;-50
2023/09/21 11:23:37;;;;;;;3.00;2.80;;;;;;;;;;5005862;28;20214;-52
2023/09/21 11:26:05;;;;;;;4.00;2.50;;;;;;;;;;5011134;28;20183;-51
2023/09/21 11:28:35;;;;;;;3.53;2.67;;;;;;;;;;5012165;28;20632;-50
2023/09/21 11:31:02;;;;;;;2.70;2.50;;;;;;;;;;5001398;28;20248;-52
2023/09/21 11:33:29;;;;;;;2.73;2.53;;;;;;;;;;5010832;28;20196;-51
2023/09/21 11:35:55;;;;;;;3.57;2.37;;;;;;;;;;5012100;28;20196;-51
2023/09/21 11:38:21;;;;;;;3.87;2.87;;;;;;;;;;5001117;28;20200;-50
2023/09/21 11:40:50;;;;;;;2.97;2.73;;;;;;;;;;5011927;28;20198;-50
2023/09/21 11:43:17;;;;;;;3.40;2.80;;;;;;;;;;5010067;28;20190;-51
2023/09/21 11:45:50;;;;;;;2.60;2.40;;;;;;;;;;5008277;28;20179;-50
2023/09/21 11:48:18;;;;;;;2.90;2.43;;;;;;;;;;5008012;28;20275;-50
2023/09/21 11:50:45;;;;;;;2.70;2.47;;;;;;;;;;5006721;28;20494;-51
2023/09/21 11:53:12;;;;;;;2.90;2.50;;;;;;;;;;5007542;28;20609;-50
2023/09/21 11:55:40;;;;;;;5.67;2.70;;;;;;;;;;5007045;28;20195;-50
2023/09/21 11:58:07;;;;;;;3.57;3.27;;;;;;;;;;5008124;28;20632;-50
2023/09/21 12:03:26;;;;;;;3.70;2.90;;;;;;;;;;4987864;28;20283;-52
2023/09/21 12:05:55;;;;;;;2.47;2.27;;;;;;;;;;5008572;28;20544;-51
2023/09/21 12:08:21;;;;;;;2.90;2.70;;;;;;;;;;5005645;28;20233;-52
2023/09/21 12:10:50;;;;;;;2.80;2.40;;;;;;;;;;4999242;28;20191;-53
2023/09/21 12:13:17;;;;;;;3.17;2.87;;;;;;;;;;5008629;28;20273;-54
2023/09/21 12:15:43;;;;;;;2.97;2.70;;;;;;;;;;5007054;28;20186;-53
2023/09/21 12:18:10;;;;;;;2.73;2.50;;;;;;;;;;5008533;28;20192;-53
2023/09/21 12:20:37;;;;;;;2.60;2.40;;;;;;;;;;5011487;28;20267;-54
2023/09/21 12:23:07;;;;;;;2.63;2.33;;;;;;;;;;4986221;28;20200;-53
2023/09/21 12:25:33;;;;;;;2.80;2.47;;;;;;;;;;5008317;28;20221;-53
2023/09/21 12:27:59;;;;;;;3.13;2.93;;;;;;;;;;5007646;28;20653;-53
2023/09/21 12:30:25;;;;;;;3.60;2.63;;;;;;;;;;4966642;28;1234854;-54
2023/09/21 12:32:52;;;;;;;4.90;2.63;;;;;;;;;;5011274;28;20209;-54
2023/09/21 12:35:19;;;;;;;5.70;2.97;;;;;;;;;;5009730;28;20175;-53
2023/09/21 12:37:45;;;;;;;2.90;2.33;;;;;;;;;;5002867;28;20262;-53
2023/09/21 12:40:15;;;;;;;3.50;2.43;;;;;;;;;;4996474;28;20988;-53
2023/09/21 12:42:42;;;;;;;3.47;2.70;;;;;;;;;;5004128;28;20182;-54
2023/09/21 12:45:11;;;;;;;2.80;2.53;;;;;;;;;;5009070;28;20175;-54
2023/09/21 12:47:37;;;;;;;3.13;2.60;;;;;;;;;;5004925;28;20281;-53
2023/09/21 12:50:06;;;;;;;6.03;3.57;;;;;;;;;;5004482;28;20170;-53
2023/09/21 12:52:32;;;;;;;2.90;2.70;;;;;;;;;;5006112;28;20191;-53
2023/09/21 12:55:00;;;;;;;5.63;2.77;;;;;;;;;;5008928;28;20650;-53
2023/09/21 12:57:27;;;;;;;4.80;2.53;;;;;;;;;;5007359;28;20186;-53
2023/09/21 12:59:54;;;;;;;3.93;2.70;;;;;;;;;;5006071;28;20198;-53
2023/09/21 13:02:30;;;;;;;3.20;2.17;;;;;;;;;;4991342;28;20721;-54
2023/09/21 13:04:57;;;;;;;3.20;2.60;;;;;;;;;;5005494;28;20175;-53
2023/09/21 13:07:24;;;;;;;2.63;2.40;;;;;;;;;;5009657;28;20209;-54
2023/09/21 13:09:51;;;;;;;3.07;2.30;;;;;;;;;;5006503;28;20186;-54
2023/09/21 13:12:18;;;;;;;3.33;3.03;;;;;;;;;;5007036;28;20190;-54
2023/09/21 13:14:44;;;;;;;3.50;2.60;;;;;;;;;;5005351;28;20189;-53
2023/09/21 13:17:10;;;;;;;3.20;2.37;;;;;;;;;;5006662;28;20220;-53
2023/09/21 13:19:37;;;;;;;2.93;2.63;;;;;;;;;;5007508;28;20203;-53
2023/09/21 13:22:03;;;;;;;4.20;3.17;;;;;;;;;;5006192;28;20240;-53
2023/09/21 13:24:29;;;;;;;3.10;2.90;;;;;;;;;;5003329;28;20179;-54
2023/09/21 13:26:56;;;;;;;2.83;2.63;;;;;;;;;;5003167;28;20249;-53
2023/09/21 13:29:22;;;;;;;3.23;2.73;;;;;;;;;;5005112;28;20241;-53
2023/09/21 13:31:52;;;;;;;4.27;3.00;;;;;;;;;;5005483;28;20197;-53
2023/09/21 13:34:18;;;;;;;4.93;2.70;;;;;;;;;;5008039;28;20261;-54
2023/09/21 13:36:45;;;;;;;3.75;2.75;;;;;;;;;;5002896;28;21161;-53
2023/09/21 13:39:11;;;;;;;3.03;2.80;;;;;;;;;;4998324;28;20561;-53
2023/09/21 13:41:38;;;;;;;10.47;5.53;;;;;;;;;;5004282;28;20209;-53
2023/09/21 13:44:04;;;;;;;4.83;3.67;;;;;;;;;;5002690;28;20278;-53
2023/09/21 13:46:30;;;;;;;5.00;3.70;;;;;;;;;;4983935;28;20178;-53
2023/09/21 13:48:57;;;;;;;6.67;3.43;;;;;;;;;;5006699;28;20189;-55
2023/09/21 13:51:23;;;;;;;4.67;3.53;;;;;;;;;;4983658;28;20179;-53
2023/09/21 13:53:49;;;;;;;6.03;3.70;;;;;;;;;;4995740;28;20270;-52
2023/09/21 13:56:16;;;;;;;5.37;3.00;;;;;;;;;;4999307;28;20328;-53
2023/09/21 13:58:43;;;;;;;3.97;3.20;;;;;;;;;;4997924;28;20179;-52
2023/09/21 14:01:10;;;;;;;6.23;3.67;;;;;;;;;;4995141;28;20222;-58
2023/09/21 14:03:38;;;;;;;5.27;2.93;;;;;;;;;;4999801;28;20183;-53
2023/09/21 14:06:05;;;;;;;4.27;3.10;;;;;;;;;;5002984;28;20235;-52
2023/09/21 14:08:31;;;;;;;3.97;3.30;;;;;;;;;;4980643;28;20584;-53
2023/09/21 14:10:57;;;;;;;5.00;3.50;;;;;;;;;;4998118;28;20183;-52
2023/09/21 14:13:27;;;;;;;6.47;3.50;;;;;;;;;;4982705;28;20187;-53
2023/09/21 14:15:53;;;;;;;7.83;3.70;;;;;;;;;;5004176;28;20251;-52
2023/09/21 14:18:19;;;;;;;4.23;3.73;;;;;;;;;;5007238;28;20175;-52
2023/09/21 14:20:45;;;;;;;6.30;3.60;;;;;;;;;;4998186;28;20636;-52
2023/09/21 14:23:12;;;;;;;6.50;4.40;;;;;;;;;;4999483;28;20297;-51
2023/09/21 14:25:38;;;;;;;4.53;3.47;;;;;;;;;;5004933;28;20591;-54
2023/09/21 14:28:04;;;;;;;5.53;4.10;;;;;;;;;;5002327;28;20175;-53
2023/09/21 14:30:30;;;;;;;6.57;3.90;;;;;;;;;;5005450;28;20257;-54
2023/09/21 14:32:56;;;;;;;6.33;3.67;;;;;;;;;;5004050;28;20186;-53
2023/09/21 14:35:23;;;;;;;6.00;4.20;;;;;;;;;;5005957;28;20192;-52
2023/09/21 14:37:49;;;;;;;5.80;3.20;;;;;;;;;;5005313;28;20201;-52
2023/09/21 14:40:15;;;;;;;3.63;3.23;;;;;;;;;;5005107;28;20675;-52
2023/09/21 14:42:42;;;;;;;4.77;4.00;;;;;;;;;;5003039;28;20190;-52
2023/09/21 14:45:09;;;;;;;6.10;3.50;;;;;;;;;;5006363;28;20586;-52
2023/09/21 14:47:36;;;;;;;6.20;3.87;;;;;;;;;;5005593;28;20216;-52
2023/09/21 14:50:04;;;;;;;6.03;3.40;;;;;;;;;;5002943;28;20535;-51